sensor_id;sensor_type;location;lat;lon;timestamp;temperature;humidity
17992;DHT22;9121;50.926;5.340;2022-12-10T00:01:21;1.50;99.90
17992;DHT22;9121;50.926;5.340;2022-12-10T00:03:48;1.40;99.90
17992;DHT22;9121;50.926;5.340;2022-12-10T00:06:18;1.40;99.90
17992;DHT22;9121;50.926;5.340;2022-12-10T00:08:47;1.40;99.90
17992;DHT22;9121;50.926;5.340;2022-12-10T00:11:15;1.40;99.90
17992;DHT22;9121;50.926;5.340;2022-12-10T00:13:44;1.30;99.90
17992;DHT22;9121;50.926;5.340;2022-12-10T00:16:12;1.40;99.90
17992;DHT22;9121;50.926;5.340;2022-12-10T00:18:39;1.30;99.90
17992;DHT22;9121;50.926;5.340;2022-12-10T00:21:08;1.50;99.90
17992;DHT22;9121;50.926;5.340;2022-12-10T00:23:37;1.30;99.90
17992;DHT22;9121;50.926;5.340;2022-12-10T00:26:07;1.40;99.90
17992;DHT22;9121;50.926;5.340;2022-12-10T00:28:34;1.40;99.90
17992;DHT22;9121;50.926;5.340;2022-12-10T00:31:03;1.30;99.90
17992;DHT22;9121;50.926;5.340;2022-12-10T00:33:30;1.30;99.90
17992;DHT22;9121;50.926;5.340;2022-12-10T00:36:01;1.40;99.90
17992;DHT22;9121;50.926;5.340;2022-12-10T00:38:28;1.60;99.90
17992;DHT22;9121;50.926;5.340;2022-12-10T00:40:55;1.60;99.90
17992;DHT22;9121;50.926;5.340;2022-12-10T00:43:24;1.70;99.90
17992;DHT22;9121;50.926;5.340;2022-12-10T00:45:50;1.50;99.90
17992;DHT22;9121;50.926;5.340;2022-12-10T00:48:17;1.50;99.90
17992;DHT22;9121;50.926;5.340;2022-12-10T00:50:54;1.40;99.90
17992;DHT22;9121;50.926;5.340;2022-12-10T00:53:22;1.30;99.90
17992;DHT22;9121;50.926;5.340;2022-12-10T00:55:49;1.20;99.90
17992;DHT22;9121;50.926;5.340;2022-12-10T00:58:16;1.20;99.90
17992;DHT22;9121;50.926;5.340;2022-12-10T01:00:44;1.20;99.90
17992;DHT22;9121;50.926;5.340;2022-12-10T01:03:11;1.10;99.90
17992;DHT22;9121;50.926;5.340;2022-12-10T01:05:38;1.10;99.90
17992;DHT22;9121;50.926;5.340;2022-12-10T01:08:05;1.10;99.90
17992;DHT22;9121;50.926;5.340;2022-12-10T01:10:32;1.20;99.90
17992;DHT22;9121;50.926;5.340;2022-12-10T01:12:59;1.20;99.90
17992;DHT22;9121;50.926;5.340;2022-12-10T01:15:26;1.20;99.90
17992;DHT22;9121;50.926;5.340;2022-12-10T01:17:55;1.20;99.90
17992;DHT22;9121;50.926;5.340;2022-12-10T01:20:22;1.30;99.90
17992;DHT22;9121;50.926;5.340;2022-12-10T01:22:49;1.30;99.90
17992;DHT22;9121;50.926;5.340;2022-12-10T01:25:16;1.30;99.90
17992;DHT22;9121;50.926;5.340;2022-12-10T01:27:43;1.40;99.90
17992;DHT22;9121;50.926;5.340;2022-12-10T01:30:11;1.30;99.90
17992;DHT22;9121;50.926;5.340;2022-12-10T01:32:38;1.20;99.90
17992;DHT22;9121;50.926;5.340;2022-12-10T01:35:07;1.20;99.90
17992;DHT22;9121;50.926;5.340;2022-12-10T01:37:34;1.30;99.90
17992;DHT22;9121;50.926;5.340;2022-12-10T01:40:01;1.30;99.90
17992;DHT22;9121;50.926;5.340;2022-12-10T01:42:28;1.20;99.90
17992;DHT22;9121;50.926;5.340;2022-12-10T01:45:01;1.20;99.90
17992;DHT22;9121;50.926;5.340;2022-12-10T01:47:28;1.10;99.90
17992;DHT22;9121;50.926;5.340;2022-12-10T01:49:57;1.10;99.90
17992;DHT22;9121;50.926;5.340;2022-12-10T01:52:26;1.20;99.90
17992;DHT22;9121;50.926;5.340;2022-12-10T01:54:53;1.30;99.90
17992;DHT22;9121;50.926;5.340;2022-12-10T01:57:22;1.30;99.90
17992;DHT22;9121;50.926;5.340;2022-12-10T01:59:52;1.20;99.90
17992;DHT22;9121;50.926;5.340;2022-12-10T02:02:28;1.30;99.90
17992;DHT22;9121;50.926;5.340;2022-12-10T02:05:06;1.20;99.90
17992;DHT22;9121;50.926;5.340;2022-12-10T02:07:48;1.10;99.90
17992;DHT22;9121;50.926;5.340;2022-12-10T02:10:24;1.20;99.90
17992;DHT22;9121;50.926;5.340;2022-12-10T02:12:57;1.20;99.90
17992;DHT22;9121;50.926;5.340;2022-12-10T02:15:31;1.30;99.90
17992;DHT22;9121;50.926;5.340;2022-12-10T02:18:04;1.30;99.90
17992;DHT22;9121;50.926;5.340;2022-12-10T02:20:36;1.30;99.90
17992;DHT22;9121;50.926;5.340;2022-12-10T02:23:09;1.30;99.90
17992;DHT22;9121;50.926;5.340;2022-12-10T02:25:41;1.40;99.90
17992;DHT22;9121;50.926;5.340;2022-12-10T02:28:16;1.50;99.90
17992;DHT22;9121;50.926;5.340;2022-12-10T02:30:47;1.40;99.90
17992;DHT22;9121;50.926;5.340;2022-12-10T02:33:16;1.40;99.90
17992;DHT22;9121;50.926;5.340;2022-12-10T02:35:45;1.20;99.90
17992;DHT22;9121;50.926;5.340;2022-12-10T02:38:17;1.30;99.90
17992;DHT22;9121;50.926;5.340;2022-12-10T02:40:49;1.20;99.90
17992;DHT22;9121;50.926;5.340;2022-12-10T02:43:20;1.10;99.90
17992;DHT22;9121;50.926;5.340;2022-12-10T02:45:49;1.10;99.90
17992;DHT22;9121;50.926;5.340;2022-12-10T02:48:18;1.10;99.90
17992;DHT22;9121;50.926;5.340;2022-12-10T02:50:46;1.10;99.90
17992;DHT22;9121;50.926;5.340;2022-12-10T02:53:13;1.10;99.90
17992;DHT22;9121;50.926;5.340;2022-12-10T02:55:53;1.10;99.90
17992;DHT22;9121;50.926;5.340;2022-12-10T02:58:28;1.10;99.90
17992;DHT22;9121;50.926;5.340;2022-12-10T03:01:06;1.10;99.90
17992;DHT22;9121;50.926;5.340;2022-12-10T03:03:42;1.10;99.90
17992;DHT22;9121;50.926;5.340;2022-12-10T03:06:16;1.10;99.90
17992;DHT22;9121;50.926;5.340;2022-12-10T03:08:48;1.10;99.90
17992;DHT22;9121;50.926;5.340;2022-12-10T03:11:18;1.20;99.90
17992;DHT22;9121;50.926;5.340;2022-12-10T03:13:52;1.20;99.90
17992;DHT22;9121;50.926;5.340;2022-12-10T03:16:23;1.20;99.90
17992;DHT22;9121;50.926;5.340;2022-12-10T03:18:55;1.20;99.90
17992;DHT22;9121;50.926;5.340;2022-12-10T03:21:24;1.20;99.90
17992;DHT22;9121;50.926;5.340;2022-12-10T03:23:53;1.20;99.90
17992;DHT22;9121;50.926;5.340;2022-12-10T03:26:21;1.10;99.90
17992;DHT22;9121;50.926;5.340;2022-12-10T03:28:51;1.10;99.90
17992;DHT22;9121;50.926;5.340;2022-12-10T03:31:21;1.10;99.90
17992;DHT22;9121;50.926;5.340;2022-12-10T03:33:48;1.10;99.90
17992;DHT22;9121;50.926;5.340;2022-12-10T03:36:17;1.10;99.90
17992;DHT22;9121;50.926;5.340;2022-12-10T03:38:45;1.30;99.90
17992;DHT22;9121;50.926;5.340;2022-12-10T03:41:12;1.30;99.90
17992;DHT22;9121;50.926;5.340;2022-12-10T03:43:50;1.30;99.90
17992;DHT22;9121;50.926;5.340;2022-12-10T03:46:18;1.40;99.90
17992;DHT22;9121;50.926;5.340;2022-12-10T03:48:46;1.40;99.90
17992;DHT22;9121;50.926;5.340;2022-12-10T03:51:13;1.40;99.90
17992;DHT22;9121;50.926;5.340;2022-12-10T03:53:40;1.40;99.90
17992;DHT22;9121;50.926;5.340;2022-12-10T03:56:07;1.30;99.90
17992;DHT22;9121;50.926;5.340;2022-12-10T03:58:34;1.30;99.90
17992;DHT22;9121;50.926;5.340;2022-12-10T04:01:02;1.30;99.90
17992;DHT22;9121;50.926;5.340;2022-12-10T04:03:29;1.30;99.90
17992;DHT22;9121;50.926;5.340;2022-12-10T04:06:02;1.40;99.90
17992;DHT22;9121;50.926;5.340;2022-12-10T04:08:29;1.30;99.90
17992;DHT22;9121;50.926;5.340;2022-12-10T04:11:02;1.30;99.90
17992;DHT22;9121;50.926;5.340;2022-12-10T04:13:31;1.20;99.90
17992;DHT22;9121;50.926;5.340;2022-12-10T04:16:16;1.30;99.90
17992;DHT22;9121;50.926;5.340;2022-12-10T04:18:57;1.40;99.90
17992;DHT22;9121;50.926;5.340;2022-12-10T04:21:26;1.50;99.90
17992;DHT22;9121;50.926;5.340;2022-12-10T04:24:11;1.50;99.90
17992;DHT22;9121;50.926;5.340;2022-12-10T04:26:58;1.50;99.90
17992;DHT22;9121;50.926;5.340;2022-12-10T04:29:27;1.40;99.90
17992;DHT22;9121;50.926;5.340;2022-12-10T04:31:55;1.30;99.90
17992;DHT22;9121;50.926;5.340;2022-12-10T04:34:23;1.40;99.90
17992;DHT22;9121;50.926;5.340;2022-12-10T04:36:52;1.20;99.90
17992;DHT22;9121;50.926;5.340;2022-12-10T04:39:20;1.30;99.90
17992;DHT22;9121;50.926;5.340;2022-12-10T04:41:48;1.20;99.90
17992;DHT22;9121;50.926;5.340;2022-12-10T04:44:15;1.30;99.90
17992;DHT22;9121;50.926;5.340;2022-12-10T04:46:42;1.30;99.90
17992;DHT22;9121;50.926;5.340;2022-12-10T04:49:09;1.30;99.90
17992;DHT22;9121;50.926;5.340;2022-12-10T04:51:37;1.30;99.90
17992;DHT22;9121;50.926;5.340;2022-12-10T04:54:06;1.30;99.90
17992;DHT22;9121;50.926;5.340;2022-12-10T04:56:33;1.20;99.90
17992;DHT22;9121;50.926;5.340;2022-12-10T04:59:01;1.20;99.90
17992;DHT22;9121;50.926;5.340;2022-12-10T05:01:28;1.20;99.90
17992;DHT22;9121;50.926;5.340;2022-12-10T05:03:58;1.20;99.90
17992;DHT22;9121;50.926;5.340;2022-12-10T05:06:25;1.20;99.90
17992;DHT22;9121;50.926;5.340;2022-12-10T05:08:53;1.10;99.90
17992;DHT22;9121;50.926;5.340;2022-12-10T05:11:23;1.10;99.90
17992;DHT22;9121;50.926;5.340;2022-12-10T05:13:50;1.20;99.90
17992;DHT22;9121;50.926;5.340;2022-12-10T05:16:19;1.20;99.90
17992;DHT22;9121;50.926;5.340;2022-12-10T05:18:46;1.20;99.90
17992;DHT22;9121;50.926;5.340;2022-12-10T05:21:15;1.20;99.90
17992;DHT22;9121;50.926;5.340;2022-12-10T05:23:47;1.30;99.90
17992;DHT22;9121;50.926;5.340;2022-12-10T05:26:15;1.30;99.90
17992;DHT22;9121;50.926;5.340;2022-12-10T05:28:45;1.20;99.90
17992;DHT22;9121;50.926;5.340;2022-12-10T05:31:14;1.20;99.90
17992;DHT22;9121;50.926;5.340;2022-12-10T05:33:41;1.10;99.90
17992;DHT22;9121;50.926;5.340;2022-12-10T05:36:10;1.10;99.90
17992;DHT22;9121;50.926;5.340;2022-12-10T05:38:38;1.10;99.90
17992;DHT22;9121;50.926;5.340;2022-12-10T05:41:06;1.10;99.90
17992;DHT22;9121;50.926;5.340;2022-12-10T05:43:34;1.10;99.90
17992;DHT22;9121;50.926;5.340;2022-12-10T05:46:03;1.10;99.90
17992;DHT22;9121;50.926;5.340;2022-12-10T05:48:31;1.10;99.90
17992;DHT22;9121;50.926;5.340;2022-12-10T05:50:58;1.10;99.90
17992;DHT22;9121;50.926;5.340;2022-12-10T05:53:25;1.10;99.90
17992;DHT22;9121;50.926;5.340;2022-12-10T05:55:59;1.00;99.90
17992;DHT22;9121;50.926;5.340;2022-12-10T05:58:27;1.00;99.90
17992;DHT22;9121;50.926;5.340;2022-12-10T06:00:54;1.00;99.90
17992;DHT22;9121;50.926;5.340;2022-12-10T06:03:22;1.20;99.90
17992;DHT22;9121;50.926;5.340;2022-12-10T06:05:49;1.20;99.90
17992;DHT22;9121;50.926;5.340;2022-12-10T06:08:16;1.20;99.90
17992;DHT22;9121;50.926;5.340;2022-12-10T06:10:43;1.30;99.90
17992;DHT22;9121;50.926;5.340;2022-12-10T06:13:11;1.30;99.90
17992;DHT22;9121;50.926;5.340;2022-12-10T06:15:39;1.30;99.90
17992;DHT22;9121;50.926;5.340;2022-12-10T06:18:06;1.20;99.90
17992;DHT22;9121;50.926;5.340;2022-12-10T06:20:37;1.20;99.90
17992;DHT22;9121;50.926;5.340;2022-12-10T06:23:04;1.00;99.90
17992;DHT22;9121;50.926;5.340;2022-12-10T06:25:31;1.10;99.90
17992;DHT22;9121;50.926;5.340;2022-12-10T06:27:58;1.10;99.90
17992;DHT22;9121;50.926;5.340;2022-12-10T06:30:25;1.10;99.90
17992;DHT22;9121;50.926;5.340;2022-12-10T06:32:52;1.20;99.90
17992;DHT22;9121;50.926;5.340;2022-12-10T06:35:19;1.20;99.90
17992;DHT22;9121;50.926;5.340;2022-12-10T06:37:48;1.30;99.90
17992;DHT22;9121;50.926;5.340;2022-12-10T06:40:16;1.30;99.90
17992;DHT22;9121;50.926;5.340;2022-12-10T06:42:43;1.30;99.90
17992;DHT22;9121;50.926;5.340;2022-12-10T06:45:10;1.30;99.90
17992;DHT22;9121;50.926;5.340;2022-12-10T06:47:37;1.30;99.90
17992;DHT22;9121;50.926;5.340;2022-12-10T06:50:05;1.20;99.90
17992;DHT22;9121;50.926;5.340;2022-12-10T06:52:32;1.20;99.90
17992;DHT22;9121;50.926;5.340;2022-12-10T06:55:00;1.20;99.90
17992;DHT22;9121;50.926;5.340;2022-12-10T06:57:27;1.30;99.90
17992;DHT22;9121;50.926;5.340;2022-12-10T06:59:54;1.20;99.90
17992;DHT22;9121;50.926;5.340;2022-12-10T07:02:21;1.20;99.90
17992;DHT22;9121;50.926;5.340;2022-12-10T07:04:48;1.20;99.90
17992;DHT22;9121;50.926;5.340;2022-12-10T07:07:15;1.20;99.90
17992;DHT22;9121;50.926;5.340;2022-12-10T07:09:42;1.20;99.90
17992;DHT22;9121;50.926;5.340;2022-12-10T07:12:10;1.30;99.90
17992;DHT22;9121;50.926;5.340;2022-12-10T07:14:37;1.40;99.90
17992;DHT22;9121;50.926;5.340;2022-12-10T07:17:04;1.30;99.90
17992;DHT22;9121;50.926;5.340;2022-12-10T07:19:31;1.30;99.90
17992;DHT22;9121;50.926;5.340;2022-12-10T07:21:59;1.20;99.90
17992;DHT22;9121;50.926;5.340;2022-12-10T07:24:26;1.20;99.90
17992;DHT22;9121;50.926;5.340;2022-12-10T07:26:52;1.20;99.90
17992;DHT22;9121;50.926;5.340;2022-12-10T07:29:21;1.20;99.90
17992;DHT22;9121;50.926;5.340;2022-12-10T07:31:48;1.00;99.90
17992;DHT22;9121;50.926;5.340;2022-12-10T07:34:16;1.00;99.90
17992;DHT22;9121;50.926;5.340;2022-12-10T07:36:43;1.00;99.90
17992;DHT22;9121;50.926;5.340;2022-12-10T07:39:10;0.90;99.90
17992;DHT22;9121;50.926;5.340;2022-12-10T07:41:43;0.90;99.90
17992;DHT22;9121;50.926;5.340;2022-12-10T07:44:11;0.90;99.90
17992;DHT22;9121;50.926;5.340;2022-12-10T07:46:40;0.90;99.90
17992;DHT22;9121;50.926;5.340;2022-12-10T07:49:07;0.90;99.90
17992;DHT22;9121;50.926;5.340;2022-12-10T07:51:35;0.80;99.90
17992;DHT22;9121;50.926;5.340;2022-12-10T07:54:02;0.80;99.90
17992;DHT22;9121;50.926;5.340;2022-12-10T07:56:29;0.90;99.90
17992;DHT22;9121;50.926;5.340;2022-12-10T07:58:56;0.90;99.90
17992;DHT22;9121;50.926;5.340;2022-12-10T08:01:25;0.80;99.90
17992;DHT22;9121;50.926;5.340;2022-12-10T08:03:55;0.70;99.90
17992;DHT22;9121;50.926;5.340;2022-12-10T08:06:24;0.70;99.90
17992;DHT22;9121;50.926;5.340;2022-12-10T08:08:51;0.70;99.90
17992;DHT22;9121;50.926;5.340;2022-12-10T08:11:20;0.80;99.90
17992;DHT22;9121;50.926;5.340;2022-12-10T08:13:47;0.90;99.90
17992;DHT22;9121;50.926;5.340;2022-12-10T08:16:16;0.90;99.90
17992;DHT22;9121;50.926;5.340;2022-12-10T08:18:43;0.90;99.90
17992;DHT22;9121;50.926;5.340;2022-12-10T08:21:14;0.90;99.90
17992;DHT22;9121;50.926;5.340;2022-12-10T08:23:41;0.90;99.90
17992;DHT22;9121;50.926;5.340;2022-12-10T08:26:11;0.90;99.90
17992;DHT22;9121;50.926;5.340;2022-12-10T08:28:38;0.90;99.90
17992;DHT22;9121;50.926;5.340;2022-12-10T08:31:07;0.90;99.90
17992;DHT22;9121;50.926;5.340;2022-12-10T08:33:34;1.00;99.90
17992;DHT22;9121;50.926;5.340;2022-12-10T08:36:02;1.00;99.90
17992;DHT22;9121;50.926;5.340;2022-12-10T08:38:31;1.00;99.90
17992;DHT22;9121;50.926;5.340;2022-12-10T08:40:58;1.00;99.90
17992;DHT22;9121;50.926;5.340;2022-12-10T08:43:25;1.10;99.90
17992;DHT22;9121;50.926;5.340;2022-12-10T08:45:52;1.10;99.90
17992;DHT22;9121;50.926;5.340;2022-12-10T08:48:20;1.20;99.90
17992;DHT22;9121;50.926;5.340;2022-12-10T08:50:49;1.20;99.90
17992;DHT22;9121;50.926;5.340;2022-12-10T08:53:16;1.30;99.90
17992;DHT22;9121;50.926;5.340;2022-12-10T08:55:44;1.20;99.90
17992;DHT22;9121;50.926;5.340;2022-12-10T08:58:11;1.10;99.90
17992;DHT22;9121;50.926;5.340;2022-12-10T09:00:38;1.10;99.90
17992;DHT22;9121;50.926;5.340;2022-12-10T09:03:05;1.00;99.90
17992;DHT22;9121;50.926;5.340;2022-12-10T09:05:34;0.90;99.90
17992;DHT22;9121;50.926;5.340;2022-12-10T09:08:01;1.00;99.90
17992;DHT22;9121;50.926;5.340;2022-12-10T09:10:28;0.90;99.90
17992;DHT22;9121;50.926;5.340;2022-12-10T09:12:57;0.90;99.90
17992;DHT22;9121;50.926;5.340;2022-12-10T09:15:24;0.90;99.90
17992;DHT22;9121;50.926;5.340;2022-12-10T09:17:51;1.00;99.90
17992;DHT22;9121;50.926;5.340;2022-12-10T09:20:18;1.10;99.90
17992;DHT22;9121;50.926;5.340;2022-12-10T09:22:45;1.10;99.90
17992;DHT22;9121;50.926;5.340;2022-12-10T09:25:12;1.10;99.90
17992;DHT22;9121;50.926;5.340;2022-12-10T09:27:41;1.10;99.90
17992;DHT22;9121;50.926;5.340;2022-12-10T09:30:11;1.00;99.90
17992;DHT22;9121;50.926;5.340;2022-12-10T09:32:38;1.00;99.90
17992;DHT22;9121;50.926;5.340;2022-12-10T09:35:05;1.00;99.90
17992;DHT22;9121;50.926;5.340;2022-12-10T09:37:32;1.00;99.90
17992;DHT22;9121;50.926;5.340;2022-12-10T09:39:59;1.10;99.90
17992;DHT22;9121;50.926;5.340;2022-12-10T09:42:37;1.10;99.90
17992;DHT22;9121;50.926;5.340;2022-12-10T09:45:17;1.00;99.90
17992;DHT22;9121;50.926;5.340;2022-12-10T09:47:49;1.00;99.90
17992;DHT22;9121;50.926;5.340;2022-12-10T09:50:22;1.10;99.90
17992;DHT22;9121;50.926;5.340;2022-12-10T09:52:51;1.20;99.90
17992;DHT22;9121;50.926;5.340;2022-12-10T09:55:33;1.30;99.90
17992;DHT22;9121;50.926;5.340;2022-12-10T09:58:02;1.40;99.90
17992;DHT22;9121;50.926;5.340;2022-12-10T10:00:36;1.40;99.90
17992;DHT22;9121;50.926;5.340;2022-12-10T10:03:04;1.50;99.90
17992;DHT22;9121;50.926;5.340;2022-12-10T10:05:35;1.40;99.90
17992;DHT22;9121;50.926;5.340;2022-12-10T10:08:04;1.50;99.90
17992;DHT22;9121;50.926;5.340;2022-12-10T10:10:34;1.50;99.90
17992;DHT22;9121;50.926;5.340;2022-12-10T10:13:12;1.50;99.90
17992;DHT22;9121;50.926;5.340;2022-12-10T10:15:44;1.50;99.90
17992;DHT22;9121;50.926;5.340;2022-12-10T10:18:15;1.50;99.90
17992;DHT22;9121;50.926;5.340;2022-12-10T10:20:45;1.40;99.90
17992;DHT22;9121;50.926;5.340;2022-12-10T10:23:14;1.50;99.90
17992;DHT22;9121;50.926;5.340;2022-12-10T10:25:42;1.40;99.90
17992;DHT22;9121;50.926;5.340;2022-12-10T10:28:11;1.40;99.90
17992;DHT22;9121;50.926;5.340;2022-12-10T10:30:43;1.30;99.90
17992;DHT22;9121;50.926;5.340;2022-12-10T10:33:13;1.10;99.90
17992;DHT22;9121;50.926;5.340;2022-12-10T10:35:46;1.10;99.90
17992;DHT22;9121;50.926;5.340;2022-12-10T10:38:17;1.00;99.90
17992;DHT22;9121;50.926;5.340;2022-12-10T10:40:49;1.10;99.90
17992;DHT22;9121;50.926;5.340;2022-12-10T10:43:20;1.20;99.90
17992;DHT22;9121;50.926;5.340;2022-12-10T10:45:52;1.20;99.90
17992;DHT22;9121;50.926;5.340;2022-12-10T10:48:22;1.30;99.90
17992;DHT22;9121;50.926;5.340;2022-12-10T10:50:51;1.40;99.90
17992;DHT22;9121;50.926;5.340;2022-12-10T10:53:30;1.50;99.90
17992;DHT22;9121;50.926;5.340;2022-12-10T10:56:04;1.60;99.90
17992;DHT22;9121;50.926;5.340;2022-12-10T10:58:32;1.60;99.90
17992;DHT22;9121;50.926;5.340;2022-12-10T11:01:02;1.60;99.90
17992;DHT22;9121;50.926;5.340;2022-12-10T11:03:31;1.60;99.90
17992;DHT22;9121;50.926;5.340;2022-12-10T11:06:00;1.70;99.90
17992;DHT22;9121;50.926;5.340;2022-12-10T11:08:30;1.70;99.90
17992;DHT22;9121;50.926;5.340;2022-12-10T11:11:02;1.80;99.90
17992;DHT22;9121;50.926;5.340;2022-12-10T11:13:32;1.80;99.90
17992;DHT22;9121;50.926;5.340;2022-12-10T11:16:10;1.80;99.90
17992;DHT22;9121;50.926;5.340;2022-12-10T11:18:39;1.90;99.90
17992;DHT22;9121;50.926;5.340;2022-12-10T11:21:17;1.90;99.90
17992;DHT22;9121;50.926;5.340;2022-12-10T11:23:48;1.90;99.90
17992;DHT22;9121;50.926;5.340;2022-12-10T11:26:43;1.80;99.90
17992;DHT22;9121;50.926;5.340;2022-12-10T11:29:32;1.70;99.90
17992;DHT22;9121;50.926;5.340;2022-12-10T11:32:14;1.70;99.90
17992;DHT22;9121;50.926;5.340;2022-12-10T11:34:55;1.70;99.90
17992;DHT22;9121;50.926;5.340;2022-12-10T11:37:29;1.60;99.90
17992;DHT22;9121;50.926;5.340;2022-12-10T11:40:06;1.60;99.90
17992;DHT22;9121;50.926;5.340;2022-12-10T11:42:44;1.30;99.90
17992;DHT22;9121;50.926;5.340;2022-12-10T11:45:18;1.40;99.90
17992;DHT22;9121;50.926;5.340;2022-12-10T11:47:57;1.30;99.90
17992;DHT22;9121;50.926;5.340;2022-12-10T11:50:37;1.30;99.90
17992;DHT22;9121;50.926;5.340;2022-12-10T11:53:25;1.40;99.90
17992;DHT22;9121;50.926;5.340;2022-12-10T11:56:02;1.50;99.90
17992;DHT22;9121;50.926;5.340;2022-12-10T11:58:57;1.50;99.90
17992;DHT22;9121;50.926;5.340;2022-12-10T12:01:36;1.60;99.90
17992;DHT22;9121;50.926;5.340;2022-12-10T12:04:27;1.50;99.90
17992;DHT22;9121;50.926;5.340;2022-12-10T12:10:07;1.60;99.90
17992;DHT22;9121;50.926;5.340;2022-12-10T12:12:41;1.60;99.90
17992;DHT22;9121;50.926;5.340;2022-12-10T12:15:17;1.60;99.90
17992;DHT22;9121;50.926;5.340;2022-12-10T12:17:48;1.60;99.90
17992;DHT22;9121;50.926;5.340;2022-12-10T12:20:22;1.60;99.90
17992;DHT22;9121;50.926;5.340;2022-12-10T12:22:53;1.60;99.90
17992;DHT22;9121;50.926;5.340;2022-12-10T12:25:26;1.50;99.90
17992;DHT22;9121;50.926;5.340;2022-12-10T12:27:57;1.60;99.90
17992;DHT22;9121;50.926;5.340;2022-12-10T12:30:26;1.80;99.90
17992;DHT22;9121;50.926;5.340;2022-12-10T12:32:57;1.80;99.90
17992;DHT22;9121;50.926;5.340;2022-12-10T12:35:36;1.70;99.90
17992;DHT22;9121;50.926;5.340;2022-12-10T12:38:10;1.70;99.90
17992;DHT22;9121;50.926;5.340;2022-12-10T12:40:46;1.70;99.90
17992;DHT22;9121;50.926;5.340;2022-12-10T12:43:19;1.70;99.90
17992;DHT22;9121;50.926;5.340;2022-12-10T12:45:48;1.50;99.90
17992;DHT22;9121;50.926;5.340;2022-12-10T12:48:23;1.50;99.90
17992;DHT22;9121;50.926;5.340;2022-12-10T12:50:58;1.60;99.90
17992;DHT22;9121;50.926;5.340;2022-12-10T12:53:25;1.50;99.90
17992;DHT22;9121;50.926;5.340;2022-12-10T12:55:59;1.40;99.90
17992;DHT22;9121;50.926;5.340;2022-12-10T12:58:35;1.40;99.90
17992;DHT22;9121;50.926;5.340;2022-12-10T13:01:14;1.40;99.90
17992;DHT22;9121;50.926;5.340;2022-12-10T13:03:45;1.40;99.90
17992;DHT22;9121;50.926;5.340;2022-12-10T13:06:16;1.50;99.90
17992;DHT22;9121;50.926;5.340;2022-12-10T13:08:45;1.50;99.90
17992;DHT22;9121;50.926;5.340;2022-12-10T13:11:19;1.50;99.90
17992;DHT22;9121;50.926;5.340;2022-12-10T13:14:16;1.50;99.90
17992;DHT22;9121;50.926;5.340;2022-12-10T13:17:01;1.60;99.90
17992;DHT22;9121;50.926;5.340;2022-12-10T13:19:30;1.80;99.90
17992;DHT22;9121;50.926;5.340;2022-12-10T13:22:02;1.80;99.90
17992;DHT22;9121;50.926;5.340;2022-12-10T13:25:00;1.80;99.90
17992;DHT22;9121;50.926;5.340;2022-12-10T13:27:30;1.70;99.90
17992;DHT22;9121;50.926;5.340;2022-12-10T13:30:01;1.80;99.90
17992;DHT22;9121;50.926;5.340;2022-12-10T13:32:44;1.90;99.90
17992;DHT22;9121;50.926;5.340;2022-12-10T13:35:29;2.00;99.90
17992;DHT22;9121;50.926;5.340;2022-12-10T13:38:04;1.90;99.90
17992;DHT22;9121;50.926;5.340;2022-12-10T13:40:41;1.90;99.90
17992;DHT22;9121;50.926;5.340;2022-12-10T13:43:29;1.90;99.90
17992;DHT22;9121;50.926;5.340;2022-12-10T13:46:31;1.80;99.90
17992;DHT22;9121;50.926;5.340;2022-12-10T13:49:00;1.80;99.90
17992;DHT22;9121;50.926;5.340;2022-12-10T13:51:46;1.60;99.90
17992;DHT22;9121;50.926;5.340;2022-12-10T13:54:36;1.50;99.90
17992;DHT22;9121;50.926;5.340;2022-12-10T13:57:15;1.50;99.90
17992;DHT22;9121;50.926;5.340;2022-12-10T13:59:49;1.60;99.90
17992;DHT22;9121;50.926;5.340;2022-12-10T14:02:34;1.50;99.90
17992;DHT22;9121;50.926;5.340;2022-12-10T14:05:23;1.50;99.90
17992;DHT22;9121;50.926;5.340;2022-12-10T14:07:56;1.40;99.90
17992;DHT22;9121;50.926;5.340;2022-12-10T14:10:29;1.50;99.90
17992;DHT22;9121;50.926;5.340;2022-12-10T14:12:58;1.50;99.90
17992;DHT22;9121;50.926;5.340;2022-12-10T14:15:26;1.50;99.90
17992;DHT22;9121;50.926;5.340;2022-12-10T14:17:59;1.60;99.90
17992;DHT22;9121;50.926;5.340;2022-12-10T14:20:30;1.60;99.90
17992;DHT22;9121;50.926;5.340;2022-12-10T14:23:03;1.70;99.90
17992;DHT22;9121;50.926;5.340;2022-12-10T14:25:47;1.70;99.90
17992;DHT22;9121;50.926;5.340;2022-12-10T14:28:15;1.70;99.90
17992;DHT22;9121;50.926;5.340;2022-12-10T14:30:44;1.70;99.90
17992;DHT22;9121;50.926;5.340;2022-12-10T14:33:15;1.60;99.90
17992;DHT22;9121;50.926;5.340;2022-12-10T14:35:44;1.60;99.90
17992;DHT22;9121;50.926;5.340;2022-12-10T14:38:17;1.60;99.90
17992;DHT22;9121;50.926;5.340;2022-12-10T14:40:47;1.60;99.90
17992;DHT22;9121;50.926;5.340;2022-12-10T14:43:17;1.60;99.90
17992;DHT22;9121;50.926;5.340;2022-12-10T14:45:47;1.70;99.90
17992;DHT22;9121;50.926;5.340;2022-12-10T14:48:17;1.80;99.90
17992;DHT22;9121;50.926;5.340;2022-12-10T14:50:45;1.80;99.90
17992;DHT22;9121;50.926;5.340;2022-12-10T14:53:15;1.80;99.90
17992;DHT22;9121;50.926;5.340;2022-12-10T14:55:42;1.80;99.90
17992;DHT22;9121;50.926;5.340;2022-12-10T14:58:16;1.70;99.90
17992;DHT22;9121;50.926;5.340;2022-12-10T15:00:45;1.70;99.90
17992;DHT22;9121;50.926;5.340;2022-12-10T15:03:19;1.60;99.90
17992;DHT22;9121;50.926;5.340;2022-12-10T15:05:54;1.60;99.90
17992;DHT22;9121;50.926;5.340;2022-12-10T15:08:22;1.60;99.90
17992;DHT22;9121;50.926;5.340;2022-12-10T15:10:53;1.70;99.90
17992;DHT22;9121;50.926;5.340;2022-12-10T15:13:32;1.60;99.90
17992;DHT22;9121;50.926;5.340;2022-12-10T15:15:59;1.50;99.90
17992;DHT22;9121;50.926;5.340;2022-12-10T15:18:30;1.50;99.90
17992;DHT22;9121;50.926;5.340;2022-12-10T15:21:05;1.60;99.90
17992;DHT22;9121;50.926;5.340;2022-12-10T15:23:34;1.50;99.90
17992;DHT22;9121;50.926;5.340;2022-12-10T15:26:09;1.50;99.90
17992;DHT22;9121;50.926;5.340;2022-12-10T15:28:41;1.70;99.90
17992;DHT22;9121;50.926;5.340;2022-12-10T15:31:13;1.70;99.90
17992;DHT22;9121;50.926;5.340;2022-12-10T15:33:46;1.80;99.90
17992;DHT22;9121;50.926;5.340;2022-12-10T15:36:21;1.70;99.90
17992;DHT22;9121;50.926;5.340;2022-12-10T15:38:49;1.70;99.90
17992;DHT22;9121;50.926;5.340;2022-12-10T15:41:30;1.70;99.90
17992;DHT22;9121;50.926;5.340;2022-12-10T15:44:18;1.60;99.90
17992;DHT22;9121;50.926;5.340;2022-12-10T15:46:48;1.60;99.90
17992;DHT22;9121;50.926;5.340;2022-12-10T15:49:16;1.60;99.90
17992;DHT22;9121;50.926;5.340;2022-12-10T15:51:43;1.60;99.90
17992;DHT22;9121;50.926;5.340;2022-12-10T15:54:22;1.50;99.90
17992;DHT22;9121;50.926;5.340;2022-12-10T15:56:49;1.40;99.90
17992;DHT22;9121;50.926;5.340;2022-12-10T15:59:18;1.50;99.90
17992;DHT22;9121;50.926;5.340;2022-12-10T16:01:45;1.60;99.90
17992;DHT22;9121;50.926;5.340;2022-12-10T16:04:12;1.60;99.90
17992;DHT22;9121;50.926;5.340;2022-12-10T16:06:40;1.70;99.90
17992;DHT22;9121;50.926;5.340;2022-12-10T16:09:08;1.70;99.90
17992;DHT22;9121;50.926;5.340;2022-12-10T16:11:35;1.60;99.90
17992;DHT22;9121;50.926;5.340;2022-12-10T16:14:03;1.50;99.90
17992;DHT22;9121;50.926;5.340;2022-12-10T16:16:33;1.60;99.90
17992;DHT22;9121;50.926;5.340;2022-12-10T16:19:00;1.50;99.90
17992;DHT22;9121;50.926;5.340;2022-12-10T16:21:27;1.50;99.90
17992;DHT22;9121;50.926;5.340;2022-12-10T16:23:54;1.50;99.90
17992;DHT22;9121;50.926;5.340;2022-12-10T16:26:22;1.40;99.90
17992;DHT22;9121;50.926;5.340;2022-12-10T16:28:49;1.40;99.90